createdAt,value
2023-05-15T00:01:19.770Z,17.90
2023-05-15T00:03:21.785Z,17.85
2023-05-15T00:05:24.306Z,17.91
2023-05-15T00:07:27.736Z,17.85
2023-05-15T00:09:31.591Z,17.84
2023-05-15T00:11:33.266Z,17.76
2023-05-15T00:13:36.342Z,17.71
2023-05-15T00:15:39.503Z,17.69
2023-05-15T00:17:41.336Z,17.67
2023-05-15T00:19:43.211Z,17.57
2023-05-15T00:21:44.915Z,17.60
2023-05-15T00:23:46.634Z,17.55
2023-05-15T00:25:48.732Z,17.58
2023-05-15T00:27:50.603Z,17.54
2023-05-15T00:29:53.700Z,17.50
2023-05-15T00:31:55.411Z,17.52
2023-05-15T00:33:57.914Z,17.52
2023-05-15T00:35:59.549Z,17.49
2023-05-15T00:38:01.348Z,17.56
2023-05-15T00:40:03.535Z,17.70
2023-05-15T00:42:07.840Z,17.72
2023-05-15T00:44:11.580Z,17.76
2023-05-15T00:46:15.533Z,17.74
2023-05-15T00:48:17.409Z,17.72
2023-05-15T00:50:20.060Z,17.84
2023-05-15T00:52:22.702Z,17.81
2023-05-15T00:54:24.996Z,17.82
2023-05-15T00:56:29.797Z,17.93
2023-05-15T00:58:32.251Z,17.93
2023-05-15T01:00:34.218Z,17.95
2023-05-15T01:02:37.366Z,17.90
2023-05-15T01:04:39.156Z,17.91
2023-05-15T01:06:40.818Z,17.88
2023-05-15T01:08:44.038Z,17.76
2023-05-15T01:10:47.811Z,17.79
2023-05-15T01:12:53.119Z,17.76
2023-05-15T01:14:54.725Z,17.70
2023-05-15T01:16:56.423Z,17.61
2023-05-15T01:18:59.664Z,17.54
2023-05-15T01:21:31.314Z,17.54
2023-05-15T01:23:44.186Z,17.50
2023-05-15T01:26:26.616Z,17.46
2023-05-15T01:28:32.190Z,17.50
2023-05-15T01:30:36.475Z,17.47
2023-05-15T01:32:47.359Z,17.39
2023-05-15T01:34:57.660Z,17.34
2023-05-15T01:37:03.499Z,17.27
2023-05-15T01:39:06.263Z,17.23
2023-05-15T01:41:15.383Z,17.19
2023-05-15T01:43:22.102Z,17.23
2023-05-15T01:45:27.075Z,17.35
2023-05-15T01:47:36.858Z,17.29
2023-05-15T01:49:39.305Z,17.20
2023-05-15T01:51:43.489Z,17.13
2023-05-15T01:53:46.489Z,17.11
2023-05-15T01:55:50.532Z,17.19
2023-05-15T01:57:52.526Z,17.30
2023-05-15T01:59:56.409Z,17.34
2023-05-15T02:02:00.572Z,17.27
2023-05-15T02:04:04.229Z,17.35
2023-05-15T02:06:07.396Z,17.41
2023-05-15T02:08:12.614Z,17.47
2023-05-15T02:10:15.087Z,17.56
2023-05-15T02:12:18.154Z,17.51
2023-05-15T02:14:21.009Z,17.50
2023-05-15T02:16:22.916Z,17.41
2023-05-15T02:18:25.887Z,17.39
2023-05-15T02:20:27.692Z,17.35
2023-05-15T02:22:29.329Z,17.36
2023-05-15T02:24:31.046Z,17.23
2023-05-15T02:26:55.125Z,17.17
2023-05-15T02:29:11.450Z,17.00
2023-05-15T02:31:23.742Z,16.94
2023-05-15T02:33:35.372Z,16.83
2023-05-15T02:35:44.304Z,16.78
2023-05-15T02:37:49.428Z,16.70
2023-05-15T02:39:51.504Z,16.61
2023-05-15T02:41:53.721Z,16.52
2023-05-15T02:43:56.316Z,16.55
2023-05-15T02:45:59.316Z,16.56
2023-05-15T02:48:02.319Z,16.51
2023-05-15T02:50:07.278Z,16.49
2023-05-15T02:52:09.002Z,16.59
2023-05-15T02:54:11.692Z,16.71
2023-05-15T02:56:13.287Z,16.68
2023-05-15T02:58:15.050Z,16.65
2023-05-15T03:00:17.057Z,16.76
2023-05-15T03:02:18.682Z,16.65
2023-05-15T03:04:21.064Z,16.58
2023-05-15T03:06:24.197Z,16.59
2023-05-15T03:08:25.977Z,16.47
2023-05-15T03:10:27.604Z,16.41
2023-05-15T03:12:34.872Z,16.41
2023-05-15T03:14:36.901Z,16.39
2023-05-15T03:16:38.597Z,16.41
2023-05-15T03:18:40.252Z,16.36
2023-05-15T03:20:42.670Z,16.47
2023-05-15T03:22:45.798Z,16.38
2023-05-15T03:24:47.826Z,16.47
2023-05-15T03:26:49.533Z,16.58
2023-05-15T03:28:51.105Z,16.54
2023-05-15T03:30:52.820Z,16.53
2023-05-15T03:32:54.481Z,16.48
2023-05-15T03:34:56.123Z,16.48
2023-05-15T03:36:57.902Z,16.37
2023-05-15T03:39:00.880Z,16.26
2023-05-15T03:41:02.575Z,16.32
2023-05-15T03:43:04.201Z,16.49
2023-05-15T03:45:07.191Z,16.44
2023-05-15T03:47:08.774Z,16.27
2023-05-15T03:49:13.209Z,16.33
2023-05-15T03:51:15.091Z,16.40
2023-05-15T03:53:16.951Z,16.48
2023-05-15T03:55:20.194Z,16.57
2023-05-15T03:57:21.764Z,16.63
2023-05-15T03:59:24.791Z,16.73
2023-05-15T04:01:26.543Z,16.69
2023-05-15T04:03:28.395Z,16.74
2023-05-15T04:05:30.011Z,16.63
2023-05-15T04:07:33.227Z,16.63
2023-05-15T04:09:34.889Z,16.71
2023-05-15T04:11:37.836Z,16.52
2023-05-15T04:13:39.442Z,16.27
2023-05-15T04:15:41.929Z,16.31
2023-05-15T04:17:43.704Z,16.27
2023-05-15T04:19:45.676Z,16.33
2023-05-15T04:21:47.412Z,16.29
2023-05-15T04:23:49.162Z,16.24
2023-05-15T04:25:50.865Z,16.17
2023-05-15T04:27:53.748Z,16.12
2023-05-15T04:29:55.234Z,16.14
2023-05-15T04:31:56.882Z,16.05
2023-05-15T04:33:58.456Z,15.96
2023-05-15T04:36:00.172Z,15.95
2023-05-15T04:38:01.769Z,15.91
2023-05-15T04:40:03.795Z,15.87
2023-05-15T04:42:05.986Z,15.83
2023-05-15T04:44:08.964Z,15.93
2023-05-15T04:46:10.542Z,15.92
2023-05-15T04:48:12.131Z,15.99
2023-05-15T04:50:13.684Z,15.95
2023-05-15T04:52:15.303Z,16.03
2023-05-15T04:54:16.947Z,16.02
2023-05-15T04:56:18.382Z,16.02
2023-05-15T04:58:21.097Z,15.96
2023-05-15T05:00:24.331Z,15.92
2023-05-15T05:02:25.930Z,15.97
2023-05-15T05:04:27.520Z,16.01
2023-05-15T05:06:30.455Z,16.06
2023-05-15T05:08:32.264Z,16.13
2023-05-15T05:10:33.838Z,16.29
2023-05-15T05:12:35.435Z,16.29
2023-05-15T05:14:37.106Z,16.23
2023-05-15T05:16:40.522Z,16.26
2023-05-15T05:18:45.144Z,16.22
2023-05-15T05:20:46.809Z,16.29
2023-05-15T05:22:48.405Z,16.05
2023-05-15T05:24:49.965Z,15.93
2023-05-15T05:26:51.538Z,15.96
2023-05-15T05:28:53.465Z,15.98
2023-05-15T05:30:55.105Z,15.92
2023-05-15T05:32:58.075Z,15.94
2023-05-15T05:34:59.674Z,15.93
2023-05-15T05:37:01.419Z,16.08
2023-05-15T05:39:03.132Z,16.13
2023-05-15T05:41:04.706Z,16.04
2023-05-15T05:43:06.453Z,15.98
2023-05-15T05:45:08.873Z,15.97
2023-05-15T05:47:10.561Z,16.04
2023-05-15T05:49:16.283Z,16.19
2023-05-15T05:51:17.958Z,16.28
2023-05-15T05:53:21.769Z,16.27
2023-05-15T05:55:23.596Z,16.34
2023-05-15T05:57:27.781Z,16.23
2023-05-15T05:59:29.695Z,16.25
2023-05-15T06:01:31.390Z,16.27
2023-05-15T06:03:33.304Z,16.23
2023-05-15T06:05:36.280Z,16.21
2023-05-15T06:07:37.872Z,16.24
2023-05-15T06:09:39.499Z,16.25
2023-05-15T06:11:41.115Z,16.38
2023-05-15T06:13:42.690Z,16.52
2023-05-15T06:15:44.308Z,16.72
2023-05-15T06:17:45.907Z,16.79
2023-05-15T06:19:47.574Z,16.82
2023-05-15T06:21:50.598Z,16.90
2023-05-15T06:23:52.222Z,16.96
2023-05-15T06:25:53.904Z,17.08
2023-05-15T06:27:55.741Z,17.16
2023-05-15T06:29:57.468Z,17.20
2023-05-15T06:31:59.169Z,17.26
2023-05-15T06:34:01.105Z,17.40
2023-05-15T06:36:02.695Z,17.50
2023-05-15T06:38:05.870Z,17.67
2023-05-15T06:40:08.725Z,17.77
2023-05-15T06:42:10.352Z,17.90
2023-05-15T06:44:12.183Z,17.91
2023-05-15T06:46:14.246Z,18.02
2023-05-15T06:48:15.981Z,18.09
2023-05-15T06:50:17.669Z,18.21
2023-05-15T06:52:20.399Z,18.29
2023-05-15T06:54:23.446Z,18.23
2023-05-15T06:56:25.270Z,18.21
2023-05-15T06:58:27.223Z,18.21
2023-05-15T07:00:28.758Z,18.19
2023-05-15T07:02:30.403Z,18.26
2023-05-15T07:04:32.287Z,18.34
2023-05-15T07:06:34.050Z,18.32
2023-05-15T07:08:35.636Z,18.42
2023-05-15T07:10:38.673Z,18.46
2023-05-15T07:12:40.545Z,18.46
2023-05-15T07:14:42.234Z,18.52
2023-05-15T07:16:43.971Z,18.55
2023-05-15T07:18:45.734Z,18.58
2023-05-15T07:20:47.404Z,18.66
2023-05-15T07:22:56.173Z,18.68
2023-05-15T07:24:58.452Z,18.74
2023-05-15T07:27:01.459Z,18.77
2023-05-15T07:29:03.185Z,18.75
2023-05-15T07:31:04.929Z,18.77
2023-05-15T07:33:07.165Z,18.78
2023-05-15T07:35:09.762Z,18.79
2023-05-15T07:37:11.577Z,19.00
2023-05-15T07:39:13.263Z,19.03
2023-05-15T07:41:15.168Z,19.13
2023-05-15T07:43:18.260Z,19.21
2023-05-15T07:45:20.018Z,19.22
2023-05-15T07:47:22.015Z,19.24
2023-05-15T07:49:23.591Z,19.33
2023-05-15T07:51:25.410Z,19.44
2023-05-15T07:53:27.383Z,19.54
2023-05-15T07:55:29.224Z,19.60
2023-05-15T07:57:31.047Z,19.61
2023-05-15T07:59:35.903Z,19.54
2023-05-15T08:01:37.478Z,19.55
2023-05-15T08:03:39.149Z,19.45
2023-05-15T08:05:40.909Z,19.55
2023-05-15T08:07:42.555Z,19.64
2023-05-15T08:09:44.171Z,19.76
2023-05-15T08:11:45.805Z,19.77
2023-05-15T08:13:47.524Z,19.78
2023-05-15T08:15:50.609Z,19.80
2023-05-15T08:17:52.339Z,19.79
2023-05-15T08:19:54.084Z,19.85
2023-05-15T08:21:55.688Z,19.85
2023-05-15T08:23:57.719Z,19.92
2023-05-15T08:25:59.393Z,19.95
2023-05-15T08:28:01.873Z,20.00
2023-05-15T08:30:03.985Z,19.97
2023-05-15T08:32:08.898Z,20.00
2023-05-15T08:34:10.609Z,19.95
2023-05-15T08:36:12.338Z,19.98
2023-05-15T08:38:13.935Z,20.03
2023-05-15T08:40:15.834Z,20.13
2023-05-15T08:42:22.028Z,20.24
2023-05-15T08:44:24.430Z,20.38
2023-05-15T08:46:29.335Z,20.53
2023-05-15T08:48:37.173Z,20.62
2023-05-15T08:50:39.386Z,20.57
2023-05-15T08:52:42.348Z,20.45
2023-05-15T08:54:45.474Z,20.55
2023-05-15T08:56:49.492Z,20.68
2023-05-15T08:58:51.527Z,20.60
2023-05-15T09:00:53.260Z,20.66
2023-05-15T09:02:54.983Z,20.73
2023-05-15T09:04:58.411Z,20.89
2023-05-15T09:07:00.891Z,20.93
2023-05-15T09:09:02.875Z,21.05
2023-05-15T09:11:05.448Z,20.85
2023-05-15T09:13:09.193Z,20.96
2023-05-15T09:15:12.221Z,21.04
2023-05-15T09:17:13.861Z,21.13
2023-05-15T09:19:17.852Z,21.21
2023-05-15T09:21:26.424Z,21.24
2023-05-15T09:23:28.334Z,21.27
2023-05-15T09:25:37.085Z,21.37
2023-05-15T09:27:43.423Z,21.37
2023-05-15T09:29:45.488Z,21.40
2023-05-15T09:31:47.367Z,21.34
2023-05-15T09:33:59.767Z,21.42
2023-05-15T09:36:01.667Z,21.44
2023-05-15T09:38:09.204Z,21.48
2023-05-15T09:40:11.529Z,21.53
2023-05-15T09:42:14.797Z,21.55
2023-05-15T09:44:21.757Z,21.62
2023-05-15T09:46:24.299Z,21.68
2023-05-15T09:48:26.059Z,21.83
2023-05-15T09:50:33.746Z,21.99
2023-05-15T09:52:35.922Z,22.02
2023-05-15T09:54:39.789Z,22.07
2023-05-15T09:56:41.585Z,22.07
2023-05-15T09:58:52.502Z,22.09
2023-05-15T10:00:54.086Z,22.09
2023-05-15T10:02:58.535Z,22.27
2023-05-15T10:05:00.856Z,22.31
2023-05-15T10:07:02.520Z,22.38
2023-05-15T10:09:10.434Z,22.42
2023-05-15T10:11:13.631Z,22.39
2023-05-15T10:13:15.401Z,22.43
2023-05-15T10:15:18.335Z,22.55
2023-05-15T10:17:20.524Z,22.66
2023-05-15T10:19:24.205Z,22.67
2023-05-15T10:21:27.794Z,22.73
2023-05-15T10:23:31.510Z,22.79
2023-05-15T10:25:38.268Z,22.75
2023-05-15T10:27:43.482Z,22.70
2023-05-15T10:29:46.228Z,22.69
2023-05-15T10:31:48.613Z,22.75
2023-05-15T10:33:51.720Z,22.92
2023-05-15T10:35:54.037Z,22.94
2023-05-15T10:37:57.128Z,22.98
2023-05-15T10:40:00.504Z,23.01
2023-05-15T10:42:02.645Z,23.08
2023-05-15T10:44:06.538Z,23.17
2023-05-15T10:46:09.470Z,23.15
2023-05-15T10:48:12.688Z,23.23
2023-05-15T10:50:15.022Z,23.26
2023-05-15T10:52:16.685Z,23.36
2023-05-15T10:54:18.256Z,23.40
2023-05-15T10:56:20.451Z,23.45
2023-05-15T10:58:23.265Z,23.47
2023-05-15T11:00:28.915Z,23.54
2023-05-15T11:02:31.652Z,23.62
2023-05-15T11:04:33.612Z,23.78
2023-05-15T11:06:36.145Z,23.81
2023-05-15T11:08:38.574Z,23.71
2023-05-15T11:10:40.267Z,23.66
2023-05-15T11:12:58.165Z,23.76
2023-05-15T11:15:18.519Z,23.86
2023-05-15T11:17:23.848Z,23.91
2023-05-15T11:19:32.859Z,23.86
2023-05-15T11:21:45.014Z,23.71
2023-05-15T11:23:47.293Z,23.61
2023-05-15T11:25:53.469Z,23.56
2023-05-15T11:27:55.311Z,23.57
2023-05-15T11:30:08.626Z,23.56
2023-05-15T11:32:39.789Z,23.60
2023-05-15T11:34:42.134Z,23.60
2023-05-15T11:36:43.938Z,23.57
2023-05-15T11:38:50.478Z,23.55
2023-05-15T11:40:53.429Z,23.64
2023-05-15T11:43:19.773Z,23.83
2023-05-15T11:45:22.661Z,23.90
2023-05-15T11:47:25.100Z,23.85
2023-05-15T11:49:28.369Z,23.86
2023-05-15T11:51:30.307Z,23.78
2023-05-15T11:53:33.392Z,23.69
2023-05-15T11:55:36.635Z,23.65
2023-05-15T11:57:38.420Z,23.65
2023-05-15T11:59:40.148Z,23.66
2023-05-15T12:01:42.764Z,23.63
2023-05-15T12:03:47.459Z,23.62
2023-05-15T12:05:59.764Z,23.78
2023-05-15T12:08:02.000Z,23.80
2023-05-15T12:10:03.873Z,23.73
2023-05-15T12:12:05.975Z,23.65
2023-05-15T12:14:11.941Z,23.63
2023-05-15T12:16:13.547Z,23.58
2023-05-15T12:18:15.545Z,23.62
2023-05-15T12:20:18.877Z,23.65
2023-05-15T12:22:24.129Z,23.66
2023-05-15T12:24:26.312Z,23.65
2023-05-15T12:26:29.590Z,23.72
2023-05-15T12:28:35.211Z,23.70
2023-05-15T12:30:37.011Z,23.70
2023-05-15T12:32:39.311Z,23.71
2023-05-15T12:34:41.126Z,23.70
2023-05-15T12:36:42.702Z,23.83
2023-05-15T12:38:45.748Z,23.81
2023-05-15T12:40:47.372Z,23.71
2023-05-15T12:42:52.854Z,23.75
2023-05-15T12:44:56.169Z,23.70
2023-05-15T12:46:58.320Z,23.71
2023-05-15T12:49:00.139Z,23.79
2023-05-15T12:51:05.690Z,23.80
2023-05-15T12:53:07.279Z,23.77
2023-05-15T12:55:16.061Z,23.81
2023-05-15T12:57:17.751Z,23.75
2023-05-15T12:59:19.574Z,23.68
2023-05-15T13:01:21.683Z,23.67
2023-05-15T13:03:25.192Z,23.72
2023-05-15T13:05:27.506Z,24.07
2023-05-15T13:07:29.768Z,24.69
2023-05-15T13:09:31.678Z,25.41
2023-05-15T13:11:34.753Z,25.18
2023-05-15T13:13:43.869Z,25.06
2023-05-15T13:15:45.856Z,24.93
2023-05-15T13:17:47.512Z,24.83
2023-05-15T13:19:49.112Z,24.70
2023-05-15T13:21:50.734Z,24.61
2023-05-15T13:23:52.448Z,24.54
2023-05-15T13:25:54.010Z,24.37
2023-05-15T13:27:58.849Z,24.31
2023-05-15T13:30:00.472Z,24.25
2023-05-15T13:32:02.085Z,24.25
2023-05-15T13:34:03.815Z,24.21
2023-05-15T13:36:05.982Z,24.16
2023-05-15T13:38:10.329Z,24.07
2023-05-15T13:40:13.482Z,24.03
2023-05-15T13:42:16.805Z,23.99
2023-05-15T13:44:19.745Z,23.96
2023-05-15T13:46:21.415Z,23.95
2023-05-15T13:48:23.111Z,24.08
2023-05-15T13:50:25.059Z,24.33
2023-05-15T13:52:27.104Z,24.40
2023-05-15T13:54:28.695Z,24.40
2023-05-15T13:56:30.574Z,24.45
2023-05-15T13:58:32.330Z,25.06
2023-05-15T14:00:35.564Z,25.30
2023-05-15T14:02:37.258Z,25.68
2023-05-15T14:04:38.899Z,25.60
2023-05-15T14:06:40.646Z,25.41
2023-05-15T14:08:42.378Z,25.27
2023-05-15T14:10:43.957Z,25.10
2023-05-15T14:12:45.536Z,25.18
2023-05-15T14:14:47.306Z,25.14
2023-05-15T14:16:50.315Z,25.24
2023-05-15T14:18:52.032Z,25.24
2023-05-15T14:20:55.621Z,25.07
2023-05-15T14:22:57.429Z,24.99
2023-05-15T14:24:59.105Z,24.65
2023-05-15T14:27:00.880Z,24.61
2023-05-15T14:29:02.520Z,24.44
2023-05-15T14:31:04.122Z,24.39
2023-05-15T14:33:07.461Z,24.49
2023-05-15T14:35:09.384Z,24.46
2023-05-15T14:37:11.127Z,24.23
2023-05-15T14:39:14.619Z,24.08
2023-05-15T14:41:16.200Z,24.03
2023-05-15T14:43:17.783Z,23.91
2023-05-15T14:45:19.675Z,23.86
2023-05-15T14:50:32.601Z,23.70
2023-05-15T14:52:34.179Z,23.61
2023-05-15T14:54:36.260Z,23.52
2023-05-15T14:56:38.102Z,23.56
2023-05-15T14:58:39.688Z,23.55
2023-05-15T15:00:41.447Z,23.41
2023-05-15T15:02:43.364Z,23.36
2023-05-15T15:04:45.276Z,23.37
2023-05-15T15:06:48.450Z,23.36
2023-05-15T15:08:50.153Z,23.27
2023-05-15T15:10:51.791Z,23.19
2023-05-15T15:12:53.859Z,23.02
2023-05-15T15:14:55.530Z,23.04
2023-05-15T15:16:57.247Z,23.03
2023-05-15T15:18:58.966Z,22.99
2023-05-15T15:21:00.630Z,22.90
2023-05-15T15:23:04.037Z,22.83
2023-05-15T15:25:08.538Z,22.92
2023-05-15T15:27:10.144Z,22.99
2023-05-15T15:29:11.815Z,22.94
2023-05-15T15:31:13.481Z,23.00
2023-05-15T15:33:15.152Z,22.88
2023-05-15T15:35:17.112Z,22.99
2023-05-15T15:37:18.634Z,23.05
2023-05-15T15:39:21.621Z,22.98
2023-05-15T15:41:23.304Z,22.95
2023-05-15T15:43:24.902Z,22.91
2023-05-15T15:45:26.468Z,22.94
2023-05-15T15:47:28.298Z,22.85
2023-05-15T15:49:31.153Z,22.98
2023-05-15T15:51:32.779Z,22.95
2023-05-15T15:53:34.507Z,23.07
2023-05-15T15:55:37.539Z,23.11
2023-05-15T15:57:39.448Z,23.08
2023-05-15T15:59:41.185Z,23.16
2023-05-15T16:01:43.346Z,23.14
2023-05-15T16:03:45.105Z,23.19
2023-05-15T16:05:46.784Z,23.15
2023-05-15T16:07:49.547Z,23.19
2023-05-15T16:10:00.445Z,23.15
2023-05-15T16:12:13.556Z,23.23
2023-05-15T16:14:15.263Z,23.15
2023-05-15T16:16:17.133Z,23.20
2023-05-15T16:18:18.774Z,23.16
2023-05-15T16:20:20.433Z,23.09
2023-05-15T16:22:22.444Z,23.06
2023-05-15T16:24:24.051Z,23.03
2023-05-15T16:26:25.865Z,22.91
2023-05-15T16:28:28.847Z,23.09
2023-05-15T16:30:44.255Z,23.15
2023-05-15T16:32:50.412Z,23.30
2023-05-15T16:34:52.113Z,23.39
2023-05-15T16:36:53.826Z,23.40
2023-05-15T16:38:55.808Z,23.40
2023-05-15T16:40:57.497Z,23.48
2023-05-15T16:42:59.160Z,23.47
2023-05-15T16:45:02.249Z,23.45
2023-05-15T16:47:04.255Z,23.46
2023-05-15T16:49:05.860Z,23.49
2023-05-15T16:51:07.448Z,23.51
2023-05-15T16:53:09.126Z,23.50
2023-05-15T16:55:13.187Z,23.45
2023-05-15T16:57:15.186Z,23.50
2023-05-15T16:59:16.995Z,23.46
2023-05-15T17:01:20.166Z,23.49
2023-05-15T17:03:22.222Z,23.51
2023-05-15T17:05:23.956Z,23.49
2023-05-15T17:07:25.642Z,23.46
2023-05-15T17:09:27.282Z,23.45
2023-05-15T17:11:28.876Z,23.41
2023-05-15T17:13:30.521Z,23.30
2023-05-15T17:15:32.294Z,23.24
2023-05-15T17:17:35.334Z,23.28
2023-05-15T17:19:37.575Z,23.27
2023-05-15T17:21:39.230Z,23.29
2023-05-15T17:23:41.007Z,23.29
2023-05-15T17:25:42.749Z,23.20
2023-05-15T17:27:44.623Z,23.15
2023-05-15T17:29:46.670Z,23.10
2023-05-15T17:31:48.324Z,23.01
2023-05-15T17:33:51.407Z,22.97
2023-05-15T17:35:52.992Z,22.81
2023-05-15T17:37:54.607Z,22.67
2023-05-15T17:39:56.291Z,22.57
2023-05-15T17:41:57.955Z,22.47
2023-05-15T17:43:59.518Z,22.53
2023-05-15T17:46:01.302Z,22.55
2023-05-15T17:48:03.176Z,22.52
2023-05-15T17:50:07.975Z,22.54
2023-05-15T17:52:09.754Z,22.59
2023-05-15T17:54:11.370Z,22.59
2023-05-15T17:56:13.085Z,22.56
2023-05-15T17:58:14.873Z,22.52
2023-05-15T18:00:17.421Z,22.55
2023-05-15T18:02:19.025Z,22.57
2023-05-15T18:04:20.709Z,22.43
2023-05-15T18:06:23.945Z,22.35
2023-05-15T18:08:25.587Z,22.34
2023-05-15T18:10:27.215Z,22.28
2023-05-15T18:12:28.903Z,22.25
2023-05-15T18:14:30.704Z,22.26
2023-05-15T18:16:32.376Z,22.24
2023-05-15T18:18:34.494Z,22.17
2023-05-15T18:20:36.415Z,22.02
2023-05-15T18:22:39.502Z,22.07
2023-05-15T18:24:41.130Z,22.06
2023-05-15T18:26:42.844Z,21.82
2023-05-15T18:28:44.399Z,21.75
2023-05-15T18:30:46.029Z,21.58
2023-05-15T18:32:47.670Z,21.39
2023-05-15T18:34:49.404Z,21.18
2023-05-15T18:36:50.916Z,21.05
2023-05-15T18:38:53.738Z,20.99
2023-05-15T18:40:55.403Z,20.93
2023-05-15T18:42:57.355Z,20.88
2023-05-15T18:44:58.960Z,20.77
2023-05-15T18:47:00.625Z,20.71
2023-05-15T18:49:02.380Z,20.63
2023-05-15T18:51:05.915Z,20.48
2023-05-15T18:53:07.621Z,20.39
2023-05-15T18:55:11.673Z,20.34
2023-05-15T18:57:13.256Z,20.29
2023-05-15T18:59:14.860Z,20.24
2023-05-15T19:01:16.703Z,20.25
2023-05-15T19:03:18.881Z,20.25
2023-05-15T19:05:21.607Z,20.21
2023-05-15T19:07:23.279Z,20.16
2023-05-15T19:09:25.056Z,20.11
2023-05-15T19:11:28.024Z,20.05
2023-05-15T19:13:29.664Z,20.06
2023-05-15T19:15:31.284Z,20.05
2023-05-15T19:17:33.843Z,20.07
2023-05-15T19:19:35.943Z,20.04
2023-05-15T19:21:38.049Z,20.04
2023-05-15T19:23:40.000Z,20.04
2023-05-15T19:25:42.141Z,20.03
2023-05-15T19:27:45.383Z,20.03
2023-05-15T19:29:47.081Z,20.07
2023-05-15T19:31:48.758Z,20.04
2023-05-15T19:33:50.854Z,20.03
2023-05-15T19:35:52.475Z,19.94
2023-05-15T19:37:54.306Z,19.90
2023-05-15T19:39:56.627Z,19.90
2023-05-15T19:41:58.669Z,19.96
2023-05-15T19:44:02.437Z,19.97
2023-05-15T19:46:04.119Z,19.93
2023-05-15T19:48:06.183Z,19.90
2023-05-15T19:50:11.503Z,19.88
2023-05-15T19:52:13.500Z,19.88
2023-05-15T19:54:15.228Z,19.89
2023-05-15T19:56:17.341Z,19.93
2023-05-15T19:58:21.583Z,19.92
2023-05-15T20:00:25.978Z,19.88
2023-05-15T20:02:27.954Z,19.83
2023-05-15T20:04:31.095Z,19.88
2023-05-15T20:06:32.806Z,19.90
2023-05-15T20:08:34.558Z,19.94
2023-05-15T20:10:36.161Z,19.91
2023-05-15T20:12:37.970Z,19.95
2023-05-15T20:14:39.866Z,19.88
2023-05-15T20:16:43.284Z,19.89
2023-05-15T20:18:44.982Z,19.98
2023-05-15T20:20:46.747Z,19.99
2023-05-15T20:22:48.494Z,19.94
2023-05-15T20:24:50.434Z,19.95
2023-05-15T20:26:52.390Z,19.97
2023-05-15T20:28:53.987Z,20.03
2023-05-15T20:30:56.752Z,20.06
2023-05-15T20:32:59.859Z,20.12
2023-05-15T20:35:01.764Z,20.15
2023-05-15T20:37:03.602Z,20.32
2023-05-15T20:39:05.813Z,20.36
2023-05-15T20:41:07.896Z,20.38
2023-05-15T20:43:09.629Z,20.35
2023-05-15T20:45:11.248Z,20.31
2023-05-15T20:47:12.889Z,20.30
2023-05-15T20:49:18.884Z,20.22
2023-05-15T20:51:20.894Z,20.25
2023-05-15T20:53:22.842Z,20.26
2023-05-15T20:55:24.548Z,20.31
2023-05-15T20:57:26.266Z,20.31
2023-05-15T20:59:27.991Z,20.16
2023-05-15T21:01:29.636Z,20.03
2023-05-15T21:03:31.347Z,20.00
2023-05-15T21:05:34.878Z,19.99
2023-05-15T21:07:36.887Z,19.95
2023-05-15T21:09:38.534Z,19.89
2023-05-15T21:11:40.808Z,19.88
2023-05-15T21:13:42.541Z,19.87
2023-05-15T21:15:45.672Z,19.84
2023-05-15T21:17:47.427Z,19.82
2023-05-15T21:19:49.064Z,19.80
2023-05-15T21:21:52.210Z,19.86
2023-05-15T21:23:54.200Z,19.76
2023-05-15T21:25:55.841Z,19.78
2023-05-15T21:27:58.700Z,19.75
2023-05-15T21:30:02.007Z,19.68
2023-05-15T21:32:03.843Z,19.64
2023-05-15T21:34:05.793Z,19.61
2023-05-15T21:36:07.966Z,19.64
2023-05-15T21:38:11.041Z,19.67
2023-05-15T21:40:15.239Z,19.66
2023-05-15T21:42:17.390Z,19.72
2023-05-15T21:44:19.237Z,19.69
2023-05-15T21:46:21.332Z,19.60
2023-05-15T21:48:23.016Z,19.60
2023-05-15T21:50:25.536Z,19.55
2023-05-15T21:52:27.371Z,19.47
2023-05-15T21:54:31.450Z,19.50
2023-05-15T21:56:33.172Z,19.55
2023-05-15T21:58:34.757Z,19.58
2023-05-15T22:00:36.553Z,19.64
2023-05-15T22:02:38.280Z,19.76
2023-05-15T22:04:40.032Z,19.78
2023-05-15T22:06:42.900Z,19.84
2023-05-15T22:08:44.538Z,19.87
2023-05-15T22:10:47.769Z,19.93
2023-05-15T22:12:49.399Z,19.96
2023-05-15T22:16:59.401Z,19.98
2023-05-15T22:19:01.100Z,20.00
2023-05-15T22:21:02.849Z,19.98
2023-05-15T22:23:04.531Z,19.95
2023-05-15T22:25:08.317Z,19.95
2023-05-15T22:27:11.629Z,19.90
2023-05-15T22:29:13.252Z,19.91
2023-05-15T22:31:14.882Z,19.91
2023-05-15T22:33:16.561Z,19.91
2023-05-15T22:35:19.746Z,19.81
2023-05-15T22:37:21.414Z,19.79
2023-05-15T22:39:23.372Z,19.72
2023-05-15T22:41:25.282Z,19.67
2023-05-15T22:43:28.562Z,19.62
2023-05-15T22:45:30.426Z,19.53
2023-05-15T22:47:32.191Z,19.57
2023-05-15T22:49:33.794Z,19.49
2023-05-15T22:51:35.427Z,19.47
2023-05-15T22:53:37.020Z,19.43
2023-05-15T22:55:39.054Z,19.51
2023-05-15T22:57:40.649Z,19.58
2023-05-15T22:59:43.703Z,19.65
2023-05-15T23:01:45.854Z,19.60
2023-05-15T23:03:47.672Z,19.64
2023-05-15T23:05:49.350Z,19.62
2023-05-15T23:07:51.123Z,19.64
2023-05-15T23:09:53.470Z,19.71
2023-05-15T23:11:55.214Z,19.68
2023-05-15T23:13:57.547Z,19.70
2023-05-15T23:16:00.907Z,19.72
2023-05-15T23:18:03.672Z,19.75
2023-05-15T23:20:06.344Z,19.70
2023-05-15T23:22:07.913Z,19.73
2023-05-15T23:24:09.574Z,19.68
2023-05-15T23:26:11.360Z,19.67
2023-05-15T23:28:13.005Z,19.62
2023-05-15T23:30:15.413Z,19.54
2023-05-15T23:32:18.519Z,19.53
2023-05-15T23:34:20.094Z,19.54
2023-05-15T23:36:21.759Z,19.57
2023-05-15T23:38:23.976Z,19.56
2023-05-15T23:40:25.883Z,19.56
2023-05-15T23:42:27.724Z,19.56
2023-05-15T23:44:29.379Z,19.55
2023-05-15T23:46:31.037Z,19.53
2023-05-15T23:48:34.572Z,19.59
2023-05-15T23:50:36.582Z,19.60
2023-05-15T23:52:38.546Z,19.63
2023-05-15T23:54:40.249Z,19.68
2023-05-15T23:56:42.052Z,19.69
2023-05-15T23:58:43.756Z,19.70
